WetterOnline ( https://www.wetteronline.de )

Wetter aktuell Fehmarn

Aktuelles Wetter: Westermarkelsdorf (9m)

6-stündlich | Neueste Meldungen
Ortszeit Temperatur Wetter
Mo, 09.12. 1:00 6.9° C wolkig
So, 08.12. 19:00 8.2° C leicht bewölkt
So, 08.12. 13:00 8.7° C bedeckt
So, 08.12. 7:00 8.4° C bedeckt
So, 08.12. 1:00 8.0° C bedeckt
Sa, 07.12. 19:00 7.5° C wolkig
Sa, 07.12. 13:00 8.0° C Sprühregen
Sa, 07.12. 7:00 8.1° C wolkig
Ortszeit Temperatur Wetter
Mo, 09.12. 1:00 6.9° C wolkig
Mo, 09.12. 0:40 7.0° C leicht bewölkt
Mo, 09.12. 0:30 7.1° C fast wolkenlos
Mo, 09.12. 0:20 7.1° C fast wolkenlos
Mo, 09.12. 0:10 7.2° C wolkenlos
Mo, 09.12. 0:00 7.3° C wolkenlos
So, 08.12. 23:50 7.3° C wolkenlos
So, 08.12. 23:30 7.3° C leicht bewölkt
So, 08.12. 23:00 7.4° C bewölkt
So, 08.12. 22:30 7.6° C leichter Regen
So, 08.12. 22:00 7.6° C fast wolkenlos
Ortszeit Relative Feuchte Sichtweite
Mo, 09.12. 1:00 78% 40 km
So, 08.12. 19:00 81% 25 km
So, 08.12. 13:00 91% 24 km
So, 08.12. 7:00 80% 35 km
So, 08.12. 1:00 89% 30 km
Sa, 07.12. 19:00 88% 30 km
Sa, 07.12. 13:00 87% 5.0 km
Sa, 07.12. 7:00 95% 27 km
Ortszeit Relative Feuchte Sichtweite
Mo, 09.12. 1:00 78% 40 km
Mo, 09.12. 0:40 78% -
Mo, 09.12. 0:30 77% 45 km
Mo, 09.12. 0:20 77% -
Mo, 09.12. 0:10 76% -
Mo, 09.12. 0:00 76% 40 km
So, 08.12. 23:50 76% -
So, 08.12. 23:30 78% 35 km
So, 08.12. 23:00 81% 29 km
So, 08.12. 22:30 79% 28 km
So, 08.12. 22:00 77% 35 km
Ortszeit Niederschlagsmenge Niederschlagsart
Mo, 09.12. 1:00 0.1 l/m2 in 6 Std. Regen
So, 08.12. 19:00 0.6 l/m2 in 12 Std. Regen
So, 08.12. 13:00 0.2 l/m2 in 6 Std. Regen
So, 08.12. 7:00 0.1 l/m2 in 12 Std. -
So, 08.12. 1:00 0.1 l/m2 in 6 Std. Regen
Sa, 07.12. 19:00 2 l/m2 in 12 Std. Regen
Sa, 07.12. 13:00 0.1 l/m2 in 6 Std. Regen
Sa, 07.12. 7:00 1 l/m2 in 12 Std. Regen
Ortszeit Niederschlagsmenge Niederschlagsart
Mo, 09.12. 1:00 0.0 l/m2 in 1 Std. Regen
Mo, 09.12. 0:40 keine Meldung -
Mo, 09.12. 0:30 0.0 l/m2 in 1 Std. -
Mo, 09.12. 0:20 keine Meldung -
Mo, 09.12. 0:10 keine Meldung -
Mo, 09.12. 0:00 0.1 l/m2 in 1 Std. -
So, 08.12. 23:50 keine Meldung -
So, 08.12. 23:30 0.1 l/m2 in 1 Std. -
So, 08.12. 23:00 0.1 l/m2 in 1 Std. Regen
So, 08.12. 22:30 0.1 l/m2 in 1 Std. -
So, 08.12. 22:00 0.1 l/m2 in 1 Std. Regen
Ortszeit Stärke Spitze Richtung
km/h Bft. km/h Grad Sektor
Mo, 09.12. 1:00 32 5 61 230° SW
So, 08.12. 19:00 41 6 70 240° SW
So, 08.12. 13:00 35 5 61 220° SW
So, 08.12. 7:00 31 5 52 210° SW
So, 08.12. 1:00 28 4 46 240° SW
Sa, 07.12. 19:00 36 5 54 250° W
Sa, 07.12. 13:00 39 6 63 270° W
Sa, 07.12. 7:00 47 6 58 260° W
Ortszeit Stärke Spitze Richtung
km/h Bft. km/h Grad Sektor
Mo, 09.12. 1:00 32 5 54 230° SW
Mo, 09.12. 0:40 33 5 - 230° SW
Mo, 09.12. 0:30 33 5 52 230° SW
Mo, 09.12. 0:20 33 5 - 230° SW
Mo, 09.12. 0:10 37 5 - 230° SW
Mo, 09.12. 0:00 33 5 57 230° SW
So, 08.12. 23:50 33 5 - 230° SW
So, 08.12. 23:30 35 5 57 230° SW
So, 08.12. 23:00 29 5 61 240° SW
So, 08.12. 22:30 32 5 61 240° SW
So, 08.12. 22:00 33 5 54 230° SW
Ortszeit Untergrenze Bedeckung Gattung
total tief tief mittel hoch
Mo, 09.12. 1:00 5400 m 5/8 7/8 - - -
So, 08.12. 19:00 690 m 4/8 4/8 - - -
So, 08.12. 13:00 390 m 8/8 8/8 - - -
So, 08.12. 7:00 510 m 8/8 8/8 - - -
So, 08.12. 1:00 720 m 8/8 8/8 - - -
Sa, 07.12. 19:00 1230 m 8/8 1/8 - - -
Sa, 07.12. 13:00 810 m 8/8 1/8 - - -
Sa, 07.12. 7:00 210 m 8/8 2/8 - - -
Ortszeit Bedeckungsgrad in Achtel und Wolkenuntergrenze
Mo, 09.12. 1:00 5(5400m) 7(5400m)
Mo, 09.12. 0:40 1(1800m) 5(5400m)
Mo, 09.12. 0:30 1(1800m)
Mo, 09.12. 0:20 1(1800m)
Mo, 09.12. 0:10 keine Wolken
Mo, 09.12. 0:00 keine Wolken
So, 08.12. 23:50 keine Wolken
So, 08.12. 23:30 1(600m)
So, 08.12. 23:00 5(660m) 7(870m) 7(1140m)
So, 08.12. 22:30 2(780m) 3(1350m) 5(1470m)
So, 08.12. 22:00 1(2700m)
Ortszeit Luftdruck NN (hPa) Tendenz (hPa in 3 Std.)
Mo, 09.12. 1:00 991 - 0,2
So, 08.12. 19:00 991 + 0,8
So, 08.12. 13:00 991 - 3,1
So, 08.12. 7:00 997 - 4,6
So, 08.12. 1:00 1005 - 1,7
Sa, 07.12. 19:00 1006 + 1,3
Sa, 07.12. 13:00 1003 + 1,8
Sa, 07.12. 7:00 997 + 1,5
Ortszeit Luftdruck NN (hPa) Tendenz (hPa in 3 Std.)
Mo, 09.12. 1:00 991 - 0,2
Mo, 09.12. 0:40 991 keine Meldung
Mo, 09.12. 0:30 990 - 0,3
Mo, 09.12. 0:20 990 keine Meldung
Mo, 09.12. 0:10 990 keine Meldung
Mo, 09.12. 0:00 990 - 0,5
So, 08.12. 23:50 990 keine Meldung
So, 08.12. 23:30 990 - 0,6
So, 08.12. 23:00 991 - 0,2
So, 08.12. 22:30 991 - 0,1
So, 08.12. 22:00 991 - 0,3
Ortszeit Schneehöhe (cm)
Mo, 09.12. 1:00 0
So, 08.12. 19:00 0
So, 08.12. 13:00 0
So, 08.12. 7:00 0
So, 08.12. 1:00 0
Sa, 07.12. 19:00 0
Sa, 07.12. 13:00 0
Sa, 07.12. 7:00 0
Ortszeit Schneehöhe (cm)
Mo, 09.12. 1:00 0
Mo, 09.12. 0:40 0
Mo, 09.12. 0:30 0
Mo, 09.12. 0:20 0
Mo, 09.12. 0:10 0
Mo, 09.12. 0:00 0
So, 08.12. 23:50 0
So, 08.12. 23:30 0
So, 08.12. 23:00 0
So, 08.12. 22:30 0
So, 08.12. 22:00 0
Link zu dieser Seite / Seite empfehlen

Das Wetter in ...